Time;durP1;ratioP1;P1;durP2;ratioP2;P2;SDS_P1;SDS_P2;PMS_P1;PMS_P2;Temp;Humidity;BMP_temperature;BMP_pressure;BME280_temperature;BME280_humidity;BME280_pressure;Samples;Min_cycle;Max_cycle;Signal;HPM_P1;HPM_P2
2022/09/14 00:01:30;;;;;;;11.67;10.43;;;16.80;99.90;;;;;;4864979;29;20496;-85
2022/09/14 00:04:00;;;;;;;10.70;9.60;;;16.70;99.90;;;;;;4864901;29;20594;-84
2022/09/14 00:06:27;;;;;;;12.13;10.70;;;16.70;99.90;;;;;;4864901;29;20514;-86
2022/09/14 00:08:56;;;;;;;10.77;9.67;;;16.50;99.90;;;;;;4864417;29;20463;-85
2022/09/14 00:11:25;;;;;;;14.50;10.53;;;16.50;99.90;;;;;;4860568;29;20622;-85
2022/09/14 00:13:54;;;;;;;11.27;10.17;;;16.50;99.90;;;;;;4863001;29;20419;-84
2022/09/14 00:16:26;;;;;;;10.80;9.70;;;16.50;99.90;;;;;;4864809;29;20520;-86
2022/09/14 00:18:56;;;;;;;10.97;9.87;;;16.40;99.90;;;;;;4865189;29;20463;-86
2022/09/14 00:21:24;;;;;;;10.73;9.73;;;16.40;99.90;;;;;;4865350;29;20500;-84
2022/09/14 00:23:51;;;;;;;10.80;9.70;;;16.40;99.90;;;;;;4864871;29;20439;-85
2022/09/14 00:26:20;;;;;;;10.53;9.53;;;16.30;99.90;;;;;;4866820;29;20465;-86
2022/09/14 00:28:50;;;;;;;10.27;9.20;;;16.40;99.90;;;;;;4874224;29;20695;-85
2022/09/14 00:31:21;;;;;;;12.10;9.17;;;16.40;99.90;;;;;;4874203;29;20438;-85
2022/09/14 00:33:50;;;;;;;10.25;9.27;;;16.50;99.90;;;;;;4860028;29;20445;-85
2022/09/14 00:36:20;;;;;;;10.53;9.43;;;16.40;99.90;;;;;;4868479;29;20249;-84
2022/09/14 00:38:48;;;;;;;12.40;10.30;;;16.40;99.90;;;;;;4870396;29;20464;-85
2022/09/14 00:41:20;;;;;;;11.17;10.07;;;16.20;99.90;;;;;;4870554;29;20454;-86
2022/09/14 00:43:58;;;;;;;13.37;9.63;;;16.40;99.90;;;;;;4868606;29;20782;-86
2022/09/14 00:46:28;;;;;;;11.13;10.03;;;16.30;99.90;;;;;;4870408;29;20502;-86
2022/09/14 00:48:59;;;;;;;10.77;9.77;;;16.30;99.90;;;;;;4870157;29;20460;-84
2022/09/14 00:51:30;;;;;;;10.97;9.87;;;16.40;99.90;;;;;;4870528;29;20438;-85
2022/09/14 00:53:57;;;;;;;10.40;9.40;;;16.50;99.90;;;;;;4870708;29;20480;-84
2022/09/14 00:56:25;;;;;;;10.57;9.57;;;16.50;99.90;;;;;;4867545;29;20501;-83
2022/09/14 00:58:53;;;;;;;9.97;9.00;;;16.70;99.90;;;;;;4866594;29;20508;-83
2022/09/14 01:01:20;;;;;;;8.27;7.47;;;16.80;99.90;;;;;;4867348;29;20799;-84
2022/09/14 01:03:47;;;;;;;10.63;8.30;;;16.90;99.90;;;;;;4865345;29;20523;-84
2022/09/14 01:06:42;;;;;;;10.20;9.20;;;16.70;99.90;;;;;;4865799;29;20452;-84
2022/09/14 01:09:13;;;;;;;9.90;9.00;;;16.80;99.90;;;;;;4865545;29;20457;-83
2022/09/14 01:12:23;;;;;;;8.43;7.60;;;16.80;99.90;;;;;;4866758;29;20442;-83
2022/09/14 01:15:16;;;;;;;9.50;8.57;;;16.80;99.90;;;;;;4865629;29;20584;-84
2022/09/14 01:18:00;;;;;;;8.80;8.00;;;16.90;99.90;;;;;;4865147;29;20446;-84
2022/09/14 01:20:58;;;;;;;18.80;10.50;;;17.00;99.90;;;;;;5103039;23;20503;-84
2022/09/14 01:23:25;;;;;;;11.57;7.90;;;16.80;99.90;;;;;;4900564;29;20447;-84
2022/09/14 01:26:07;;;;;;;9.40;8.50;;;17.00;99.90;;;;;;4909585;29;20463;-84
2022/09/14 01:28:45;;;;;;;13.20;8.67;;;16.90;99.90;;;;;;4908945;29;20444;-84
2022/09/14 01:31:25;;;;;;;8.10;7.30;;;17.00;99.90;;;;;;4910396;29;20435;-84
2022/09/14 01:34:00;;;;;;;8.70;7.90;;;17.10;99.90;;;;;;4904386;29;20481;-84
2022/09/14 01:36:29;;;;;;;8.57;7.83;;;17.10;99.90;;;;;;4917463;29;20486;-84
2022/09/14 01:38:57;;;;;;;11.20;8.00;;;17.10;99.90;;;;;;4907532;29;20473;-84
2022/09/14 01:41:29;;;;;;;10.17;8.13;;;17.20;99.90;;;;;;4911066;29;20443;-82
2022/09/14 01:44:10;;;;;;;10.77;8.27;;;17.10;99.90;;;;;;4906878;29;20639;-83
2022/09/14 01:46:52;;;;;;;10.23;8.60;;;16.80;99.90;;;;;;4908139;29;20419;-83
2022/09/14 01:49:51;;;;;;;9.50;8.60;;;16.80;99.90;;;;;;4910058;29;20611;-84
2022/09/14 01:52:26;;;;;;;10.43;9.43;;;16.80;99.90;;;;;;4881434;29;20452;-84
2022/09/14 01:55:02;;;;;;;11.27;9.03;;;17.00;99.90;;;;;;4914005;29;20503;-85
2022/09/14 01:57:35;;;;;;;10.40;7.20;;;16.90;99.90;;;;;;4891785;29;20470;-84
2022/09/14 02:00:09;;;;;;;9.20;8.30;;;17.00;99.90;;;;;;4916594;29;20435;-83
2022/09/14 02:02:43;;;;;;;10.47;8.57;;;17.00;99.90;;;;;;4902724;29;20454;-85
2022/09/14 02:05:28;;;;;;;11.50;9.03;;;17.00;99.90;;;;;;4904810;29;20973;-85
2022/09/14 02:07:55;;;;;;;10.03;9.03;;;17.00;99.90;;;;;;4908861;29;20492;-85
2022/09/14 02:10:25;;;;;;;9.30;8.40;;;17.10;99.90;;;;;;4911123;29;20503;-85
2022/09/14 02:12:54;;;;;;;9.63;8.63;;;17.00;99.90;;;;;;4900684;29;20443;-85
2022/09/14 02:15:21;;;;;;;10.47;8.87;;;16.90;99.90;;;;;;4907550;29;20521;-84
2022/09/14 02:17:48;;;;;;;10.53;9.33;;;17.00;99.90;;;;;;4907574;29;20429;-84
2022/09/14 02:20:48;;;;;;;11.03;9.67;;;17.00;99.90;;;;;;4907565;29;20460;-85
2022/09/14 02:23:16;;;;;;;11.17;10.07;;;17.00;99.90;;;;;;4908868;29;20425;-85
2022/09/14 02:25:45;;;;;;;9.50;8.60;;;17.10;99.90;;;;;;4906439;29;20448;-84
2022/09/14 02:28:12;;;;;;;9.60;8.60;;;17.10;99.90;;;;;;4900236;29;20447;-84
2022/09/14 02:30:56;;;;;;;11.13;10.03;;;17.30;99.90;;;;;;4911709;29;20471;-84
2022/09/14 02:33:52;;;;;;;10.00;9.00;;;17.10;99.90;;;;;;4904415;29;20495;-83
2022/09/14 02:36:29;;;;;;;10.50;8.83;;;17.10;99.90;;;;;;4902670;29;20530;-84
2022/09/14 02:39:07;;;;;;;23.20;11.00;;;17.00;99.90;;;;;;4910647;29;20748;-84
2022/09/14 02:41:53;;;;;;;9.80;8.80;;;17.00;99.90;;;;;;4900925;29;20472;-84
2022/09/14 02:44:38;;;;;;;12.33;10.37;;;16.90;99.90;;;;;;4909980;29;20661;-85
2022/09/14 02:47:21;;;;;;;14.90;10.27;;;17.10;99.90;;;;;;4910930;29;20421;-85
2022/09/14 02:50:09;;;;;;;12.63;9.67;;;17.20;99.90;;;;;;4903527;29;20439;-85
2022/09/14 02:52:45;;;;;;;12.50;10.67;;;17.30;99.90;;;;;;4924410;29;20435;-86
2022/09/14 02:55:18;;;;;;;13.33;12.03;;;17.30;99.90;;;;;;4890689;29;20467;-84
2022/09/14 02:58:09;;;;;;;10.70;8.97;;;17.40;99.90;;;;;;4890289;29;20500;-83
2022/09/14 03:00:42;;;;;;;10.70;9.53;;;17.30;99.90;;;;;;4906729;29;20503;-84
2022/09/14 03:03:12;;;;;;;10.97;9.47;;;17.40;99.90;;;;;;4901778;29;20503;-85
2022/09/14 03:05:39;;;;;;;12.53;8.93;;;17.40;99.90;;;;;;4891714;29;20448;-84
2022/09/14 03:08:09;;;;;;;12.73;10.43;;;17.30;99.90;;;;;;4894182;29;20421;-84
2022/09/14 03:10:36;;;;;;;14.53;10.10;;;17.40;99.90;;;;;;4914673;29;20571;-84
2022/09/14 03:13:04;;;;;;;9.97;8.90;;;17.30;99.90;;;;;;4906141;29;20605;-83
2022/09/14 03:15:30;;;;;;;9.60;8.60;;;17.30;99.90;;;;;;4906004;29;20508;-85
2022/09/14 03:17:58;;;;;;;12.20;10.30;;;17.10;99.90;;;;;;4905416;29;20487;-83
2022/09/14 03:20:28;;;;;;;11.53;9.07;;;16.90;99.90;;;;;;4912690;29;20454;-84
2022/09/14 03:22:57;;;;;;;12.00;10.17;;;16.80;99.90;;;;;;4895029;29;20514;-83
2022/09/14 03:25:24;;;;;;;10.73;9.67;;;16.80;99.90;;;;;;4884054;29;20455;-84
2022/09/14 03:27:54;;;;;;;11.33;10.20;;;16.80;99.90;;;;;;4905220;29;20652;-83
2022/09/14 03:30:25;;;;;;;10.90;9.80;;;16.80;99.90;;;;;;4913099;29;20445;-84
2022/09/14 03:32:52;;;;;;;12.57;9.60;;;16.80;99.90;;;;;;4904080;29;20444;-84
2022/09/14 03:35:19;;;;;;;13.17;11.67;;;16.60;99.90;;;;;;4915499;29;20465;-83
2022/09/14 03:37:46;;;;;;;13.30;11.40;;;16.70;99.90;;;;;;4901323;29;20566;-83
2022/09/14 03:40:15;;;;;;;15.03;11.93;;;16.60;99.90;;;;;;4910817;29;20450;-83
2022/09/14 03:42:50;;;;;;;14.90;12.10;;;16.50;99.90;;;;;;4905343;29;20426;-84
2022/09/14 03:45:18;;;;;;;15.77;11.57;;;16.50;99.90;;;;;;4906333;29;20648;-84
2022/09/14 03:47:46;;;;;;;13.60;11.87;;;16.50;99.90;;;;;;4910559;29;20483;-83
2022/09/14 03:50:14;;;;;;;13.17;11.90;;;16.40;99.90;;;;;;4896996;29;20610;-82
2022/09/14 03:52:41;;;;;;;13.83;11.30;;;16.40;99.90;;;;;;4904981;29;20448;-83
2022/09/14 03:55:10;;;;;;;12.70;11.37;;;16.40;99.90;;;;;;4888334;29;20792;-83
2022/09/14 03:57:37;;;;;;;13.90;11.90;;;16.40;99.90;;;;;;4890732;29;20451;-84
2022/09/14 04:00:06;;;;;;;12.57;11.10;;;16.40;99.90;;;;;;4898499;29;20447;-83
2022/09/14 04:02:34;;;;;;;16.40;12.50;;;16.40;99.90;;;;;;4907778;29;20453;-80
2022/09/14 04:05:00;;;;;;;13.90;11.60;;;16.40;99.90;;;;;;4909371;29;20540;-81
2022/09/14 04:07:28;;;;;;;14.57;11.70;;;16.30;99.90;;;;;;4902564;29;20446;-81
2022/09/14 04:09:55;;;;;;;16.73;14.90;;;16.30;99.90;;;;;;4907869;29;20445;-81
2022/09/14 04:12:22;;;;;;;16.87;14.07;;;16.30;99.90;;;;;;4923312;29;20669;-82
2022/09/14 04:14:49;;;;;;;15.93;14.33;;;16.10;99.90;;;;;;4912094;29;20439;-81
2022/09/14 04:17:16;;;;;;;20.03;13.00;;;16.20;99.90;;;;;;4900392;29;20520;-82
2022/09/14 04:19:43;;;;;;;21.03;15.60;;;16.30;99.90;;;;;;4891206;29;20473;-82
2022/09/14 04:22:10;;;;;;;16.70;14.40;;;16.30;99.90;;;;;;4907512;29;20481;-82
2022/09/14 04:24:37;;;;;;;16.17;13.77;;;16.30;99.90;;;;;;4908288;29;20504;-81
2022/09/14 04:27:06;;;;;;;14.73;13.10;;;16.30;99.90;;;;;;4923058;29;20465;-81
2022/09/14 04:29:33;;;;;;;15.13;13.03;;;16.30;99.90;;;;;;4911055;29;20427;-83
2022/09/14 04:32:00;;;;;;;18.30;14.90;;;16.30;99.90;;;;;;4910091;29;20446;-84
2022/09/14 04:34:27;;;;;;;17.23;13.90;;;16.30;99.90;;;;;;4903398;29;20492;-84
2022/09/14 04:36:54;;;;;;;14.03;12.33;;;16.30;99.90;;;;;;4902307;29;20486;-85
2022/09/14 04:39:21;;;;;;;15.70;14.10;;;16.30;99.90;;;;;;4907652;29;20733;-85
2022/09/14 04:41:48;;;;;;;15.37;13.80;;;16.30;99.90;;;;;;4905468;29;20778;-83
2022/09/14 04:44:15;;;;;;;15.10;13.60;;;16.30;99.90;;;;;;4909981;29;20506;-84
2022/09/14 04:46:45;;;;;;;20.37;15.10;;;16.30;99.90;;;;;;4886244;29;20454;-84
2022/09/14 04:49:14;;;;;;;18.67;13.80;;;16.30;99.90;;;;;;4892028;29;20640;-84
2022/09/14 04:51:41;;;;;;;14.80;13.30;;;16.30;99.90;;;;;;4891928;29;20809;-84
2022/09/14 04:54:11;;;;;;;19.93;15.23;;;16.20;99.90;;;;;;4897010;29;20451;-84
2022/09/14 04:56:39;;;;;;;14.67;12.70;;;16.20;99.90;;;;;;4904472;29;20486;-84
2022/09/14 04:59:06;;;;;;;16.30;13.37;;;16.20;99.90;;;;;;4896571;29;20442;-84
2022/09/14 05:01:44;;;;;;;18.27;14.00;;;16.10;99.90;;;;;;4903328;29;20451;-87
2022/09/14 05:04:11;;;;;;;20.63;16.00;;;16.20;99.90;;;;;;4906508;29;20456;-84
2022/09/14 05:06:40;;;;;;;17.57;13.67;;;16.40;99.90;;;;;;4893082;29;20412;-83
2022/09/14 05:09:14;;;;;;;14.50;13.07;;;16.40;99.90;;;;;;4888511;29;20699;-85
2022/09/14 05:11:41;;;;;;;16.67;14.37;;;16.40;99.90;;;;;;4897130;29;20485;-84
2022/09/14 05:14:11;;;;;;;40.47;14.13;;;16.50;99.90;;;;;;4889385;29;20433;-84
2022/09/14 05:16:39;;;;;;;18.70;12.30;;;16.70;99.90;;;;;;4915323;29;20548;-87
2022/09/14 05:19:10;;;;;;;15.03;11.97;;;16.70;99.90;;;;;;4908950;29;20701;-86
2022/09/14 05:21:37;;;;;;;15.73;12.40;;;16.90;99.90;;;;;;4928102;29;20442;-84
2022/09/14 05:24:11;;;;;;;18.80;11.93;;;17.00;99.90;;;;;;4926467;29;20494;-84
2022/09/14 05:26:39;;;;;;;15.00;11.30;;;17.00;99.90;;;;;;4905584;29;20488;-84
2022/09/14 05:29:06;;;;;;;18.33;12.60;;;17.10;99.90;;;;;;4899122;29;20466;-86
2022/09/14 05:31:33;;;;;;;12.53;10.40;;;17.20;99.90;;;;;;4905241;29;20426;-84
2022/09/14 05:34:00;;;;;;;12.13;10.90;;;17.00;99.90;;;;;;4907674;29;21025;-81
2022/09/14 05:36:27;;;;;;;15.57;12.37;;;17.00;99.90;;;;;;4907679;29;20494;-85
2022/09/14 05:38:56;;;;;;;14.60;13.10;;;17.00;99.90;;;;;;4909845;29;20523;-83
2022/09/14 05:41:24;;;;;;;15.60;10.90;;;17.10;99.90;;;;;;4891485;29;20644;-85
2022/09/14 05:43:51;;;;;;;13.00;10.67;;;17.00;99.90;;;;;;4889546;29;20544;-84
2022/09/14 05:46:21;;;;;;;14.00;11.73;;;16.80;99.90;;;;;;4917101;29;20447;-80
2022/09/14 05:48:50;;;;;;;11.27;10.07;;;17.00;99.90;;;;;;4898657;29;20565;-82
2022/09/14 05:51:22;;;;;;;15.03;11.17;;;17.00;99.90;;;;;;4895827;29;20483;-81
2022/09/14 05:53:51;;;;;;;13.03;11.73;;;16.90;99.90;;;;;;4903630;29;20438;-81
2022/09/14 05:56:19;;;;;;;12.43;11.10;;;16.80;99.90;;;;;;4909147;29;20479;-80
2022/09/14 05:58:47;;;;;;;19.13;12.20;;;16.90;99.90;;;;;;4910963;29;20508;-81
2022/09/14 06:01:22;;;;;;;13.70;11.67;;;17.00;99.90;;;;;;4903280;29;20511;-81
2022/09/14 06:03:53;;;;;;;15.73;11.60;;;17.10;99.90;;;;;;4903812;29;20413;-81
2022/09/14 06:06:21;;;;;;;12.73;11.23;;;17.10;99.90;;;;;;4907696;29;20445;-81
2022/09/14 06:08:51;;;;;;;13.87;10.03;;;17.20;99.90;;;;;;4902407;29;20427;-81
2022/09/14 06:11:20;;;;;;;21.47;12.43;;;17.20;99.90;;;;;;4893389;29;20426;-83
2022/09/14 06:13:49;;;;;;;11.67;10.50;;;17.30;99.90;;;;;;4895765;29;20476;-82
2022/09/14 06:16:18;;;;;;;15.70;11.00;;;17.30;99.90;;;;;;4886389;29;20454;-80
2022/09/14 06:18:47;;;;;;;12.43;11.10;;;17.20;99.90;;;;;;4902904;29;20456;-81
2022/09/14 06:21:18;;;;;;;14.77;10.53;;;17.20;99.90;;;;;;4898366;29;20438;-81
2022/09/14 06:23:46;;;;;;;11.20;10.00;;;17.30;99.90;;;;;;4899280;29;20459;-80
2022/09/14 06:26:14;;;;;;;11.47;9.63;;;17.30;99.90;;;;;;4906549;29;20628;-82
2022/09/14 06:28:42;;;;;;;13.00;11.57;;;17.60;99.90;;;;;;4902203;29;20506;-82
2022/09/14 06:31:12;;;;;;;11.50;10.40;;;17.70;99.90;;;;;;4910187;29;20627;-81
2022/09/14 06:33:44;;;;;;;15.77;12.93;;;18.00;99.90;;;;;;4904049;29;20450;-83
2022/09/14 06:36:13;;;;;;;12.20;9.80;;;18.00;99.90;;;;;;4890323;29;20455;-81
2022/09/14 06:38:41;;;;;;;12.53;11.23;;;18.00;99.90;;;;;;4902177;29;20440;-81
2022/09/14 06:41:12;;;;;;;15.57;13.50;;;18.30;99.90;;;;;;4908026;29;20418;-81
2022/09/14 06:43:41;;;;;;;21.03;14.07;;;18.80;99.90;;;;;;4885926;29;20411;-82
2022/09/14 06:46:18;;;;;;;20.87;16.03;;;19.00;99.90;;;;;;4897123;29;20510;-82
2022/09/14 06:48:51;;;;;;;15.80;14.20;;;19.10;99.90;;;;;;4916218;29;20699;-82
2022/09/14 06:51:25;;;;;;;17.77;15.90;;;19.20;99.90;;;;;;4907503;29;20450;-82
2022/09/14 06:53:58;;;;;;;21.93;14.50;;;19.10;99.90;;;;;;4906912;29;20414;-80
2022/09/14 06:56:30;;;;;;;17.43;14.93;;;19.30;99.90;;;;;;4886253;29;20520;-80
2022/09/14 06:59:00;;;;;;;14.20;12.90;;;19.10;99.90;;;;;;4902791;29;20623;-82
2022/09/14 07:01:28;;;;;;;14.33;10.60;;;19.10;99.90;;;;;;4892255;29;20443;-82
2022/09/14 07:03:57;;;;;;;13.43;9.63;;;19.10;99.90;;;;;;4901522;29;20504;-83
2022/09/14 07:06:25;;;;;;;10.43;9.40;;;19.00;99.90;;;;;;4902776;29;20442;-83
2022/09/14 07:08:53;;;;;;;11.70;9.50;;;18.90;99.90;;;;;;4901415;29;20474;-82
2022/09/14 07:11:22;;;;;;;11.27;10.03;;;19.00;99.90;;;;;;4885190;29;20423;-83
2022/09/14 07:13:49;;;;;;;11.80;9.80;;;19.10;99.90;;;;;;4894518;29;20576;-84
2022/09/14 07:16:17;;;;;;;9.97;9.00;;;19.20;99.90;;;;;;4912523;29;20543;-83
2022/09/14 07:18:44;;;;;;;10.37;9.37;;;19.40;99.90;;;;;;4915079;29;20443;-82
2022/09/14 07:21:16;;;;;;;12.70;8.70;;;19.50;99.90;;;;;;4885353;29;20467;-82
2022/09/14 07:23:45;;;;;;;9.07;8.17;;;19.50;99.90;;;;;;4908238;29;20426;-84
2022/09/14 07:26:22;;;;;;;9.40;8.40;;;19.50;99.90;;;;;;4894377;29;20463;-82
2022/09/14 07:28:58;;;;;;;11.47;10.37;;;19.60;99.90;;;;;;4908211;29;20413;-82
2022/09/14 07:31:27;;;;;;;9.53;8.63;;;19.60;99.90;;;;;;4905306;29;20463;-82
2022/09/14 07:33:57;;;;;;;11.13;10.00;;;19.70;99.90;;;;;;4917488;29;20457;-82
2022/09/14 07:36:25;;;;;;;11.57;9.83;;;19.90;99.90;;;;;;4910634;29;20466;-84
2022/09/14 07:38:55;;;;;;;10.23;9.27;;;19.90;99.90;;;;;;4911568;29;20469;-83
2022/09/14 07:41:24;;;;;;;10.83;9.07;;;20.00;99.90;;;;;;4900454;29;20460;-82
2022/09/14 07:43:52;;;;;;;12.53;9.87;;;20.20;99.90;;;;;;4885809;29;20447;-82
2022/09/14 07:46:20;;;;;;;11.63;8.77;;;20.40;99.90;;;;;;4888582;29;20435;-81
2022/09/14 07:48:53;;;;;;;11.60;8.70;;;20.50;99.90;;;;;;4884582;29;20515;-80
2022/09/14 07:51:19;;;;;;;11.03;8.53;;;20.60;99.90;;;;;;4884801;29;20449;-82
2022/09/14 07:53:47;;;;;;;12.40;7.90;;;20.40;99.90;;;;;;4901294;29;20521;-80
2022/09/14 07:56:15;;;;;;;10.80;8.07;;;20.50;99.90;;;;;;4906845;29;20781;-81
2022/09/14 07:58:43;;;;;;;8.60;7.70;;;20.40;99.90;;;;;;4918406;29;20431;-82
2022/09/14 08:01:16;;;;;;;10.40;8.67;;;20.60;99.90;;;;;;4900690;29;20464;-81
2022/09/14 08:03:44;;;;;;;10.10;9.00;;;20.90;99.90;;;;;;4901547;29;20432;-82
2022/09/14 08:06:17;;;;;;;13.00;10.33;;;21.10;99.90;;;;;;4904661;29;20737;-81
2022/09/14 08:08:46;;;;;;;10.60;9.27;;;21.00;99.90;;;;;;4902233;29;20427;-82
2022/09/14 08:11:19;;;;;;;12.47;10.57;;;21.10;99.90;;;;;;4901231;29;20429;-82
2022/09/14 08:13:49;;;;;;;11.33;8.20;;;21.20;99.90;;;;;;4901024;29;20429;-82
2022/09/14 08:16:18;;;;;;;8.80;7.80;;;21.30;99.90;;;;;;4901310;29;20845;-81
2022/09/14 08:18:46;;;;;;;11.27;7.50;;;21.20;99.90;;;;;;4897729;29;20441;-82
2022/09/14 08:21:15;;;;;;;9.70;8.10;;;21.20;99.90;;;;;;4901371;29;20444;-81
2022/09/14 08:23:44;;;;;;;14.40;9.77;;;21.30;99.90;;;;;;4914029;29;20681;-82
2022/09/14 08:26:16;;;;;;;9.67;8.00;;;21.50;99.90;;;;;;4900387;29;20526;-82
2022/09/14 08:28:45;;;;;;;10.80;8.60;;;21.60;99.90;;;;;;4900507;29;20534;-82
2022/09/14 08:31:18;;;;;;;8.93;8.03;;;21.30;99.90;;;;;;4901074;29;20454;-81
2022/09/14 08:33:53;;;;;;;10.03;8.03;;;21.40;99.90;;;;;;4903637;29;20410;-82
2022/09/14 08:36:21;;;;;;;8.87;7.60;;;21.30;99.90;;;;;;4890892;29;20498;-83
2022/09/14 08:38:48;;;;;;;10.13;9.07;;;21.10;99.90;;;;;;4907917;29;20425;-82
2022/09/14 08:41:25;;;;;;;11.70;7.60;;;21.30;99.90;;;;;;4917057;29;20765;-82
2022/09/14 08:43:52;;;;;;;8.80;7.87;;;21.30;99.90;;;;;;4900271;29;20430;-82
2022/09/14 08:46:37;;;;;;;8.63;7.67;;;21.40;99.90;;;;;;4899312;29;20500;-81
2022/09/14 08:49:13;;;;;;;11.40;7.40;;;21.50;99.90;;;;;;4903188;29;20603;-82
2022/09/14 08:51:41;;;;;;;9.87;9.00;;;21.50;99.90;;;;;;4900391;29;20457;-82
2022/09/14 08:54:09;;;;;;;8.73;7.03;;;21.70;99.90;;;;;;4906792;29;20429;-82
2022/09/14 08:56:40;;;;;;;10.43;9.07;;;21.80;99.90;;;;;;4913476;29;20463;-82
2022/09/14 08:59:34;;;;;;;8.60;7.73;;;21.90;99.90;;;;;;4908704;29;20477;-84
2022/09/14 09:02:19;;;;;;;12.57;9.57;;;22.10;99.90;;;;;;4906188;29;20417;-82
2022/09/14 09:05:24;;;;;;;11.50;8.47;;;22.00;99.90;;;;;;4922235;29;20414;-84
2022/09/14 09:08:12;;;;;;;8.67;7.80;;;22.30;99.90;;;;;;4905153;29;20511;-82
2022/09/14 09:10:40;;;;;;;10.70;7.60;;;22.20;99.90;;;;;;4908747;29;20450;-83
2022/09/14 09:13:13;;;;;;;7.93;7.13;;;22.30;99.90;;;;;;4909015;29;20422;-83
2022/09/14 09:15:53;;;;;;;10.77;7.67;;;22.50;99.90;;;;;;4903628;29;20451;-81
2022/09/14 09:18:39;;;;;;;6.77;6.17;;;22.70;99.90;;;;;;4903307;29;20511;-82
2022/09/14 09:21:14;;;;;;;12.90;7.03;;;22.00;99.90;;;;;;4896740;29;20834;-81
2022/09/14 09:23:41;;;;;;;8.90;7.60;;;21.50;99.90;;;;;;4894778;29;20409;-83
2022/09/14 09:26:14;;;;;;;9.33;5.93;;;21.50;99.90;;;;;;4890402;29;20456;-81
2022/09/14 09:28:51;;;;;;;7.50;5.70;;;22.30;99.90;;;;;;4903325;29;20470;-80
2022/09/14 09:31:21;;;;;;;11.63;7.87;;;22.70;99.90;;;;;;4903789;29;20422;-81
2022/09/14 09:33:49;;;;;;;8.53;7.63;;;23.00;99.90;;;;;;4906602;29;20426;-80
2022/09/14 09:36:17;;;;;;;7.33;6.63;;;23.60;99.90;;;;;;4890807;29;20431;-81
2022/09/14 09:38:44;;;;;;;8.70;6.60;;;24.10;99.90;;;;;;4904946;29;20918;-80
2022/09/14 09:41:18;;;;;;;7.50;6.37;;;24.20;99.90;;;;;;4908884;29;20455;-82
2022/09/14 09:44:04;;;;;;;10.37;6.40;;;23.90;99.90;;;;;;4903633;29;20429;-81
2022/09/14 09:46:33;;;;;;;7.67;5.70;;;24.20;99.90;;;;;;4905254;29;20702;-81
2022/09/14 09:49:13;;;;;;;8.87;6.33;;;24.20;99.90;;;;;;4920890;29;20443;-82
2022/09/14 09:51:40;;;;;;;8.73;5.37;;;24.10;99.90;;;;;;4917570;29;20492;-82
2022/09/14 09:54:22;;;;;;;8.93;6.23;;;24.00;99.90;;;;;;4899727;29;20426;-83
2022/09/14 09:56:56;;;;;;;6.87;6.07;;;23.90;99.90;;;;;;4912958;29;20822;-83
2022/09/14 09:59:39;;;;;;;6.23;5.17;;;23.80;99.90;;;;;;4909313;29;20505;-83
2022/09/14 10:02:30;;;;;;;6.83;6.07;;;23.90;99.90;;;;;;4903964;29;20511;-82
2022/09/14 10:05:08;;;;;;;8.90;4.90;;;23.90;99.90;;;;;;4902823;29;20430;-83
2022/09/14 10:07:48;;;;;;;12.03;7.03;;;24.00;99.90;;;;;;4884371;29;20460;-81
2022/09/14 10:10:19;;;;;;;6.27;5.67;;;23.70;99.90;;;;;;4905804;29;20664;-82
2022/09/14 10:12:48;;;;;;;11.37;6.27;;;23.10;99.90;;;;;;4908689;29;20590;-82
2022/09/14 10:15:24;;;;;;;14.33;5.07;;;22.30;99.90;;;;;;4905438;29;20455;-83
2022/09/14 10:17:59;;;;;;;5.63;5.10;;;22.20;99.90;;;;;;4911428;29;20540;-83
2022/09/14 10:20:26;;;;;;;6.30;4.80;;;22.50;99.90;;;;;;4911284;29;20467;-81
2022/09/14 10:22:53;;;;;;;10.17;7.30;;;22.70;99.90;;;;;;4905098;29;20451;-83
2022/09/14 10:25:24;;;;;;;23.77;10.10;;;23.30;99.90;;;;;;4904361;29;20640;-82
2022/09/14 10:27:54;;;;;;;10.33;6.50;;;23.60;99.90;;;;;;4905547;29;20488;-83
2022/09/14 10:30:26;;;;;;;12.60;6.27;;;23.70;99.90;;;;;;4907350;29;20448;-84
2022/09/14 10:33:04;;;;;;;7.80;6.30;;;23.30;99.90;;;;;;4881687;29;20436;-82
2022/09/14 10:35:44;;;;;;;6.20;5.63;;;23.40;99.90;;;;;;4893330;29;20560;-84
2022/09/14 10:38:26;;;;;;;8.00;6.33;;;23.50;99.90;;;;;;4903556;29;20454;-82
2022/09/14 10:41:15;;;;;;;8.07;6.30;;;23.40;99.90;;;;;;4898444;29;20546;-82
2022/09/14 10:43:59;;;;;;;8.43;5.07;;;23.20;99.90;;;;;;4908287;29;20457;-84
2022/09/14 10:46:44;;;;;;;7.13;5.77;;;23.00;99.90;;;;;;4893931;29;20612;-82
2022/09/14 10:49:54;;;;;;;11.47;5.40;;;22.90;99.90;;;;;;4887665;29;20439;-83
2022/09/14 10:52:35;;;;;;;8.00;5.63;;;22.90;99.90;;;;;;4919126;29;20535;-84
2022/09/14 10:55:43;;;;;;;7.43;5.33;;;23.00;99.90;;;;;;4903384;29;20418;-83
2022/09/14 10:58:53;;;;;;;6.43;5.83;;;23.20;99.90;;;;;;4906223;29;20475;-83
2022/09/14 11:01:30;;;;;;;9.20;5.60;;;23.60;99.90;;;;;;4889778;29;20755;-81
2022/09/14 11:04:16;;;;;;;8.93;5.87;;;23.80;99.90;;;;;;4902538;29;20869;-82
2022/09/14 11:07:04;;;;;;;8.17;5.37;;;23.30;99.90;;;;;;4905182;29;20659;-83
2022/09/14 11:09:43;;;;;;;8.87;6.50;;;23.60;99.90;;;;;;4917798;29;20447;-83
2022/09/14 11:12:17;;;;;;;8.00;6.57;;;24.20;99.90;;;;;;4914348;29;20464;-84
2022/09/14 11:14:59;;;;;;;10.77;7.00;;;24.70;99.90;;;;;;4920896;29;20454;-82
2022/09/14 11:17:53;;;;;;;9.10;5.13;;;24.90;99.90;;;;;;4922191;29;20564;-83
2022/09/14 11:20:36;;;;;;;7.30;5.97;;;24.70;99.90;;;;;;4906295;29;20455;-85
2022/09/14 11:23:19;;;;;;;8.03;5.30;;;24.30;99.90;;;;;;4907478;29;20539;-83
2022/09/14 11:26:09;;;;;;;6.27;5.67;;;24.40;99.90;;;;;;4906103;29;20488;-85
2022/09/14 11:28:39;;;;;;;9.00;6.27;;;24.40;99.90;;;;;;4894335;29;20445;-83
2022/09/14 11:31:13;;;;;;;7.93;6.53;;;24.40;99.90;;;;;;4904552;29;20415;-83
2022/09/14 11:33:47;;;;;;;16.20;6.90;;;24.00;99.90;;;;;;4902145;29;20762;-84
2022/09/14 11:36:20;;;;;;;7.27;5.40;;;23.90;99.90;;;;;;4879441;29;20642;-83
2022/09/14 11:39:10;;;;;;;11.80;5.93;;;24.10;99.90;;;;;;4878138;29;20886;-83
2022/09/14 11:41:58;;;;;;;6.70;6.00;;;24.00;99.90;;;;;;4879106;29;20460;-82
2022/09/14 11:44:32;;;;;;;9.00;7.60;;;23.70;99.90;;;;;;4906505;29;20734;-83
2022/09/14 11:47:07;;;;;;;7.00;6.23;;;23.60;99.90;;;;;;4911557;29;20436;-83
2022/09/14 11:49:54;;;;;;;8.00;6.83;;;23.50;99.90;;;;;;4907225;29;20446;-84
2022/09/14 11:52:23;;;;;;;7.67;6.87;;;23.60;99.90;;;;;;4915175;29;20444;-83
2022/09/14 11:54:51;;;;;;;7.27;6.57;;;23.80;99.90;;;;;;4895032;29;20444;-82
2022/09/14 11:57:26;;;;;;;9.17;6.60;;;24.10;99.90;;;;;;4890387;29;20591;-83
2022/09/14 12:00:00;;;;;;;7.03;6.00;;;24.00;99.90;;;;;;4896252;29;20642;-83
2022/09/14 12:02:27;;;;;;;10.10;7.70;;;23.80;99.90;;;;;;4881911;29;20464;-83
2022/09/14 12:05:09;;;;;;;11.90;6.63;;;24.10;99.90;;;;;;4912123;29;20917;-83
2022/09/14 12:07:41;;;;;;;6.90;6.20;;;24.20;99.90;;;;;;4891434;29;20450;-83
2022/09/14 12:10:17;;;;;;;8.90;6.83;;;24.40;99.90;;;;;;4897890;29;20789;-84
2022/09/14 12:13:03;;;;;;;7.50;6.80;;;24.10;99.90;;;;;;4907900;29;20418;-84
2022/09/14 12:15:29;;;;;;;7.13;6.43;;;24.20;99.90;;;;;;4904788;29;20799;-84
2022/09/14 12:18:05;;;;;;;12.53;6.03;;;24.50;99.90;;;;;;4902912;29;20559;-83
2022/09/14 12:20:41;;;;;;;7.87;7.17;;;24.70;99.90;;;;;;4903560;29;20535;-83
2022/09/14 12:23:26;;;;;;;8.10;7.00;;;24.70;99.90;;;;;;4904536;29;20576;-84
2022/09/14 12:26:02;;;;;;;10.50;7.97;;;24.70;99.90;;;;;;4902050;29;20436;-83
2022/09/14 12:28:36;;;;;;;7.70;6.80;;;25.00;99.90;;;;;;4904614;29;20777;-83
2022/09/14 12:31:03;;;;;;;10.43;7.27;;;25.30;99.90;;;;;;4919314;29;20459;-83
2022/09/14 12:33:30;;;;;;;7.83;7.03;;;25.30;99.90;;;;;;4889473;29;20750;-83
2022/09/14 12:36:11;;;;;;;8.70;7.83;;;25.00;99.90;;;;;;4913113;29;20455;-83
2022/09/14 12:39:22;;;;;;;9.47;8.00;;;25.10;99.90;;;;;;4909275;29;20479;-84
2022/09/14 12:41:49;;;;;;;11.80;8.00;;;24.70;99.90;;;;;;4898733;29;20726;-81
2022/09/14 12:44:40;;;;;;;8.73;7.90;;;24.40;99.90;;;;;;4889036;29;20449;-81
2022/09/14 12:47:23;;;;;;;11.13;8.20;;;24.20;99.90;;;;;;4900712;29;20875;-82
2022/09/14 12:49:56;;;;;;;8.00;7.30;;;24.40;99.90;;;;;;4897635;29;20528;-82
2022/09/14 12:52:43;;;;;;;10.90;9.80;;;24.60;99.90;;;;;;4907048;29;20426;-84
2022/09/14 12:55:43;;;;;;;10.53;9.53;;;24.30;99.90;;;;;;4902120;29;20446;-83
2022/09/14 12:58:19;;;;;;;9.37;8.37;;;23.90;99.90;;;;;;4901805;29;20475;-83
2022/09/14 13:01:28;;;;;;;9.80;8.80;;;23.70;99.90;;;;;;4907447;29;20466;-84
2022/09/14 13:03:57;;;;;;;9.07;8.20;;;23.40;99.90;;;;;;4905974;29;20459;-84
2022/09/14 13:06:32;;;;;;;12.13;8.87;;;23.30;99.90;;;;;;4918851;29;20448;-84
2022/09/14 13:09:01;;;;;;;11.27;9.10;;;23.20;99.90;;;;;;4907962;29;20451;-84